AIC87W VOMM-VOHS
Flight info
| Callsign | AIC87W |
|---|---|
| Flight time | 0h 51m |
| Altitude | 36000 |
| Route | KAMGU2B KAMGU W20 LEDOB LEDOB6 |
| Aircraft | B772/H-SDE2E3FGHIJ5LORVWXY/LB1D1 |
Departure
| Time | 2026-04-26 09:03 |
|---|---|
| Airport | Chennai International Airport (VOMM) |
Arrival
| Time | 2026-04-26 09:54 |
|---|---|
| Airport | Rajiv Gandhi International Airport (VOHS) |
| Time | Latitude | Longitude | Altitude | Speed | Heading |
|---|---|---|---|---|---|
| 2026-04-26 08:33 | 12.98311 | 80.16181 | 66 ft | 0 kts | 158° |
| 2026-04-26 08:52 | 12.98314 | 80.16180 | 66 ft | 2 kts | 158° |
| 2026-04-26 08:53 | 12.98328 | 80.16174 | 66 ft | 1 kts | 158° |
| 2026-04-26 08:53 | 12.98337 | 80.16170 | 66 ft | 2 kts | 153° |
| 2026-04-26 08:53 | 12.98349 | 80.16161 | 66 ft | 2 kts | 127° |
| 2026-04-26 08:53 | 12.98356 | 80.16148 | 66 ft | 2 kts | 107° |
| 2026-04-26 08:54 | 12.98358 | 80.16133 | 66 ft | 2 kts | 86° |
| 2026-04-26 08:54 | 12.98356 | 80.16121 | 66 ft | 0 kts | 70° |
| 2026-04-26 08:54 | 12.98355 | 80.16116 | 66 ft | 0 kts | 68° |
| 2026-04-26 08:57 | 12.98355 | 80.16117 | 66 ft | 0 kts | 68° |
| 2026-04-26 08:57 | 12.98364 | 80.16135 | 66 ft | 4 kts | 58° |
| 2026-04-26 08:57 | 12.98401 | 80.16157 | 66 ft | 7 kts | 2° |
| 2026-04-26 08:57 | 12.98464 | 80.16141 | 66 ft | 10 kts | 343° |
| 2026-04-26 08:58 | 12.98536 | 80.16167 | 66 ft | 13 kts | 53° |
| 2026-04-26 08:58 | 12.98577 | 80.16258 | 66 ft | 14 kts | 71° |
| 2026-04-26 08:58 | 12.98615 | 80.16359 | 66 ft | 15 kts | 69° |
| 2026-04-26 08:58 | 12.98657 | 80.16470 | 66 ft | 17 kts | 69° |
| 2026-04-26 08:59 | 12.98703 | 80.16593 | 66 ft | 19 kts | 69° |
| 2026-04-26 08:59 | 12.98753 | 80.16724 | 66 ft | 20 kts | 69° |
| 2026-04-26 08:59 | 12.98804 | 80.16865 | 65 ft | 21 kts | 69° |
| 2026-04-26 08:59 | 12.98860 | 80.17014 | 65 ft | 23 kts | 68° |
| 2026-04-26 09:00 | 12.98921 | 80.17171 | 65 ft | 24 kts | 67° |
| 2026-04-26 09:00 | 12.98995 | 80.17333 | 65 ft | 25 kts | 69° |
| 2026-04-26 09:00 | 12.99062 | 80.17509 | 65 ft | 26 kts | 69° |
| 2026-04-26 09:00 | 12.99146 | 80.17679 | 65 ft | 27 kts | 30° |
| 2026-04-26 09:01 | 12.99251 | 80.17836 | 65 ft | 27 kts | 67° |
| 2026-04-26 09:01 | 12.99321 | 80.18028 | 65 ft | 29 kts | 70° |
| 2026-04-26 09:01 | 12.99370 | 80.18226 | 65 ft | 25 kts | 72° |
| 2026-04-26 09:01 | 12.99436 | 80.18324 | 65 ft | 16 kts | 45° |
| 2026-04-26 09:02 | 12.99527 | 80.18399 | 65 ft | 11 kts | 9° |
| 2026-04-26 09:02 | 12.99559 | 80.18338 | 65 ft | 13 kts | 255° |
| 2026-04-26 09:02 | 12.99514 | 80.18221 | 65 ft | 34 kts | 248° |
| 2026-04-26 09:02 | 12.99329 | 80.17733 | 65 ft | 109 kts | 250° |
| 2026-04-26 09:03 | 12.98986 | 80.16807 | 67 ft | 166 kts | 249° |
| 2026-04-26 09:03 | 12.98570 | 80.15608 | 351 ft | 186 kts | 247° |
| 2026-04-26 09:03 | 12.98115 | 80.14314 | 931 ft | 201 kts | 246° |
| 2026-04-26 09:03 | 12.97651 | 80.12907 | 1496 ft | 212 kts | 256° |
| 2026-04-26 09:04 | 12.97631 | 80.11337 | 1790 ft | 234 kts | 278° |
| 2026-04-26 09:04 | 12.98257 | 80.09756 | 2088 ft | 251 kts | 304° |
| 2026-04-26 09:04 | 12.99544 | 80.08559 | 2655 ft | 251 kts | 331° |
| 2026-04-26 09:04 | 13.01206 | 80.08033 | 3136 ft | 257 kts | 357° |
| 2026-04-26 09:05 | 13.03021 | 80.08295 | 3448 ft | 272 kts | 24° |
| 2026-04-26 09:05 | 13.04574 | 80.09446 | 4039 ft | 273 kts | 50° |
| 2026-04-26 09:05 | 13.05740 | 80.10958 | 4778 ft | 272 kts | 52° |
| 2026-04-26 09:05 | 13.07094 | 80.12287 | 5481 ft | 272 kts | 33° |
| 2026-04-26 09:06 | 13.08832 | 80.13114 | 5872 ft | 276 kts | 19° |
| 2026-04-26 09:06 | 13.10704 | 80.13602 | 5804 ft | 275 kts | 11° |
| 2026-04-26 09:06 | 13.12608 | 80.13930 | 5796 ft | 276 kts | 9° |
| 2026-04-26 09:06 | 13.14519 | 80.14216 | 5797 ft | 276 kts | 8° |
| 2026-04-26 09:07 | 13.16428 | 80.14494 | 5792 ft | 276 kts | 8° |
| 2026-04-26 09:07 | 13.18333 | 80.14769 | 5791 ft | 275 kts | 9° |
| 2026-04-26 09:07 | 13.20246 | 80.15042 | 5786 ft | 274 kts | 6° |
| 2026-04-26 09:07 | 13.22152 | 80.15064 | 5779 ft | 274 kts | 358° |
| 2026-04-26 09:08 | 13.24085 | 80.14949 | 5778 ft | 275 kts | 357° |
| 2026-04-26 09:08 | 13.25983 | 80.14826 | 5772 ft | 275 kts | 358° |
| 2026-04-26 09:08 | 13.27916 | 80.14706 | 5778 ft | 275 kts | 358° |
| 2026-04-26 09:08 | 13.29823 | 80.14590 | 5768 ft | 275 kts | 358° |
| 2026-04-26 09:09 | 13.31745 | 80.14317 | 5775 ft | 276 kts | 345° |
| 2026-04-26 09:09 | 13.33577 | 80.13612 | 6191 ft | 286 kts | 339° |
| 2026-04-26 09:09 | 13.35392 | 80.12824 | 7080 ft | 279 kts | 339° |
| 2026-04-26 09:09 | 13.37158 | 80.12054 | 7736 ft | 281 kts | 340° |
| 2026-04-26 09:10 | 13.38988 | 80.11259 | 8364 ft | 285 kts | 340° |
| 2026-04-26 09:10 | 13.40813 | 80.10466 | 9039 ft | 286 kts | 341° |
| 2026-04-26 09:10 | 13.42660 | 80.09666 | 9675 ft | 289 kts | 341° |
| 2026-04-26 09:10 | 13.44517 | 80.08862 | 10156 ft | 299 kts | 340° |
| 2026-04-26 09:11 | 13.46500 | 80.08003 | 10442 ft | 316 kts | 340° |
| 2026-04-26 09:11 | 13.48584 | 80.07100 | 10738 ft | 332 kts | 340° |
| 2026-04-26 09:11 | 13.50756 | 80.06156 | 11137 ft | 343 kts | 340° |
| 2026-04-26 09:11 | 13.52976 | 80.05191 | 11767 ft | 346 kts | 340° |
| 2026-04-26 09:12 | 13.55204 | 80.04223 | 12442 ft | 351 kts | 340° |
| 2026-04-26 09:12 | 13.57471 | 80.03238 | 13154 ft | 355 kts | 339° |
| 2026-04-26 09:12 | 13.59762 | 80.02242 | 13865 ft | 359 kts | 339° |
| 2026-04-26 09:12 | 13.62067 | 80.01241 | 14583 ft | 365 kts | 339° |
| 2026-04-26 09:13 | 13.64437 | 80.00211 | 15339 ft | 371 kts | 339° |
| 2026-04-26 09:13 | 13.66826 | 79.99171 | 16102 ft | 376 kts | 338° |
| 2026-04-26 09:13 | 13.69259 | 79.98114 | 16830 ft | 382 kts | 338° |
| 2026-04-26 09:13 | 13.71733 | 79.97038 | 17571 ft | 387 kts | 338° |
| 2026-04-26 09:14 | 13.74201 | 79.95964 | 18375 ft | 390 kts | 338° |
| 2026-04-26 09:14 | 13.76713 | 79.94872 | 19166 ft | 393 kts | 337° |
| 2026-04-26 09:14 | 13.79253 | 79.93765 | 19894 ft | 397 kts | 337° |
| 2026-04-26 09:14 | 13.81807 | 79.92654 | 20634 ft | 401 kts | 336° |
| 2026-04-26 09:15 | 13.84399 | 79.91524 | 21418 ft | 404 kts | 336° |
| 2026-04-26 09:15 | 13.86993 | 79.90395 | 22154 ft | 407 kts | 336° |
| 2026-04-26 09:15 | 13.89615 | 79.89253 | 22846 ft | 411 kts | 336° |
| 2026-04-26 09:15 | 13.92265 | 79.88097 | 23500 ft | 416 kts | 336° |
| 2026-04-26 09:16 | 13.94962 | 79.86922 | 24148 ft | 420 kts | 336° |
| 2026-04-26 09:16 | 13.97657 | 79.85747 | 24779 ft | 424 kts | 335° |
| 2026-04-26 09:16 | 14.00384 | 79.84557 | 25399 ft | 428 kts | 335° |
| 2026-04-26 09:16 | 14.03133 | 79.83358 | 26019 ft | 431 kts | 335° |
| 2026-04-26 09:17 | 14.05920 | 79.82142 | 26604 ft | 435 kts | 335° |
| 2026-04-26 09:17 | 14.08714 | 79.80922 | 27189 ft | 439 kts | 335° |
| 2026-04-26 09:17 | 14.11546 | 79.79686 | 27761 ft | 442 kts | 335° |
| 2026-04-26 09:17 | 14.14420 | 79.78431 | 28305 ft | 446 kts | 335° |
| 2026-04-26 09:18 | 14.17286 | 79.77179 | 28822 ft | 450 kts | 334° |
| 2026-04-26 09:18 | 14.20181 | 79.75914 | 29366 ft | 454 kts | 334° |
| 2026-04-26 09:18 | 14.23105 | 79.74636 | 29887 ft | 457 kts | 334° |
| 2026-04-26 09:18 | 14.26059 | 79.73344 | 30401 ft | 461 kts | 334° |
| 2026-04-26 09:19 | 14.29049 | 79.72037 | 30897 ft | 464 kts | 334° |
| 2026-04-26 09:19 | 14.32017 | 79.70739 | 31373 ft | 468 kts | 334° |
| 2026-04-26 09:19 | 14.35033 | 79.69419 | 31864 ft | 470 kts | 334° |
| 2026-04-26 09:19 | 14.38049 | 79.68100 | 32517 ft | 469 kts | 333° |
| 2026-04-26 09:20 | 14.41060 | 79.66782 | 33276 ft | 466 kts | 333° |
| 2026-04-26 09:20 | 14.44032 | 79.65482 | 34047 ft | 463 kts | 333° |
| 2026-04-26 09:20 | 14.47004 | 79.64181 | 34737 ft | 462 kts | 333° |
| 2026-04-26 09:20 | 14.49943 | 79.62892 | 35364 ft | 461 kts | 333° |
| 2026-04-26 09:21 | 14.52930 | 79.61583 | 35750 ft | 463 kts | 333° |
| 2026-04-26 09:21 | 14.58878 | 79.58973 | 35754 ft | 469 kts | 333° |
| 2026-04-26 09:22 | 14.64971 | 79.56300 | 35749 ft | 475 kts | 333° |
| 2026-04-26 09:22 | 14.71192 | 79.53569 | 35745 ft | 472 kts | 333° |
| 2026-04-26 09:23 | 14.77148 | 79.50956 | 35749 ft | 461 kts | 333° |
| 2026-04-26 09:23 | 14.83094 | 79.48341 | 35753 ft | 465 kts | 333° |
| 2026-04-26 09:24 | 14.89105 | 79.45695 | 35752 ft | 471 kts | 333° |
| 2026-04-26 09:24 | 14.95184 | 79.43019 | 35766 ft | 476 kts | 333° |
| 2026-04-26 09:25 | 15.01333 | 79.40292 | 35759 ft | 481 kts | 332° |
| 2026-04-26 09:25 | 15.07542 | 79.37508 | 35765 ft | 486 kts | 332° |
| 2026-04-26 09:26 | 15.13761 | 79.34721 | 35768 ft | 477 kts | 332° |
| 2026-04-26 09:26 | 15.16790 | 79.33366 | 35776 ft | 464 kts | 332° |
| 2026-04-26 09:26 | 15.19737 | 79.32045 | 35777 ft | 459 kts | 332° |
| 2026-04-26 09:27 | 15.25642 | 79.29392 | 35786 ft | 460 kts | 332° |
| 2026-04-26 09:27 | 15.31516 | 79.26753 | 35795 ft | 461 kts | 332° |
| 2026-04-26 09:28 | 15.37392 | 79.24113 | 35798 ft | 459 kts | 332° |
| 2026-04-26 09:28 | 15.43257 | 79.21477 | 35796 ft | 459 kts | 332° |
| 2026-04-26 09:29 | 15.49120 | 79.18844 | 35794 ft | 458 kts | 332° |
| 2026-04-26 09:29 | 15.54976 | 79.16232 | 35801 ft | 457 kts | 332° |
| 2026-04-26 09:30 | 15.60806 | 79.13632 | 35194 ft | 449 kts | 332° |
| 2026-04-26 09:30 | 15.63689 | 79.12346 | 34603 ft | 445 kts | 332° |
| 2026-04-26 09:30 | 15.66510 | 79.11086 | 34029 ft | 441 kts | 332° |
| 2026-04-26 09:30 | 15.69332 | 79.09825 | 33460 ft | 436 kts | 332° |
| 2026-04-26 09:31 | 15.72139 | 79.08568 | 32913 ft | 448 kts | 333° |
| 2026-04-26 09:31 | 15.75070 | 79.07253 | 32356 ft | 468 kts | 333° |
| 2026-04-26 09:31 | 15.78083 | 79.05905 | 31771 ft | 467 kts | 333° |
| 2026-04-26 09:31 | 15.81066 | 79.04572 | 31195 ft | 465 kts | 333° |
| 2026-04-26 09:32 | 15.84005 | 79.03257 | 30624 ft | 464 kts | 333° |
| 2026-04-26 09:32 | 15.86984 | 79.01923 | 30043 ft | 461 kts | 334° |
| 2026-04-26 09:32 | 15.89899 | 79.00619 | 29471 ft | 457 kts | 334° |
| 2026-04-26 09:32 | 15.92823 | 78.99309 | 28897 ft | 453 kts | 334° |
| 2026-04-26 09:33 | 15.95738 | 78.98003 | 28324 ft | 449 kts | 334° |
| 2026-04-26 09:33 | 15.98583 | 78.96729 | 27765 ft | 446 kts | 334° |
| 2026-04-26 09:33 | 16.01427 | 78.95453 | 27200 ft | 443 kts | 334° |
| 2026-04-26 09:33 | 16.04273 | 78.94176 | 26626 ft | 440 kts | 334° |
| 2026-04-26 09:34 | 16.07092 | 78.92911 | 26061 ft | 437 kts | 334° |
| 2026-04-26 09:34 | 16.09845 | 78.91676 | 25502 ft | 434 kts | 334° |
| 2026-04-26 09:34 | 16.12636 | 78.90422 | 24938 ft | 431 kts | 334° |
| 2026-04-26 09:34 | 16.15284 | 78.89233 | 24410 ft | 427 kts | 334° |
| 2026-04-26 09:35 | 16.18023 | 78.88002 | 23856 ft | 424 kts | 334° |
| 2026-04-26 09:35 | 16.20728 | 78.86786 | 23296 ft | 421 kts | 334° |
| 2026-04-26 09:35 | 16.23385 | 78.85592 | 22758 ft | 417 kts | 334° |
| 2026-04-26 09:35 | 16.26032 | 78.84402 | 22228 ft | 413 kts | 334° |
| 2026-04-26 09:36 | 16.28678 | 78.83211 | 21725 ft | 409 kts | 334° |
| 2026-04-26 09:36 | 16.31291 | 78.82035 | 21214 ft | 406 kts | 334° |
| 2026-04-26 09:36 | 16.33865 | 78.80876 | 20703 ft | 403 kts | 335° |
| 2026-04-26 09:36 | 16.36441 | 78.79717 | 20181 ft | 400 kts | 335° |
| 2026-04-26 09:37 | 16.38982 | 78.78572 | 19664 ft | 397 kts | 335° |
| 2026-04-26 09:37 | 16.41507 | 78.77434 | 19151 ft | 394 kts | 335° |
| 2026-04-26 09:37 | 16.44023 | 78.76300 | 18635 ft | 392 kts | 336° |
| 2026-04-26 09:37 | 16.46528 | 78.75170 | 18118 ft | 389 kts | 336° |
| 2026-04-26 09:38 | 16.48996 | 78.74057 | 17611 ft | 386 kts | 337° |
| 2026-04-26 09:38 | 16.51460 | 78.72946 | 17112 ft | 383 kts | 337° |
| 2026-04-26 09:38 | 16.53904 | 78.71844 | 16629 ft | 380 kts | 337° |
| 2026-04-26 09:38 | 16.56342 | 78.70744 | 16139 ft | 377 kts | 337° |
| 2026-04-26 09:39 | 16.58745 | 78.69659 | 15658 ft | 374 kts | 337° |
| 2026-04-26 09:39 | 16.61118 | 78.68587 | 15182 ft | 371 kts | 337° |
| 2026-04-26 09:39 | 16.63472 | 78.67523 | 14701 ft | 368 kts | 337° |
| 2026-04-26 09:39 | 16.65815 | 78.66462 | 14213 ft | 365 kts | 338° |
| 2026-04-26 09:40 | 16.68143 | 78.65408 | 13727 ft | 362 kts | 338° |
| 2026-04-26 09:40 | 16.70445 | 78.64364 | 13248 ft | 359 kts | 338° |
| 2026-04-26 09:40 | 16.72735 | 78.63326 | 12770 ft | 356 kts | 338° |
| 2026-04-26 09:40 | 16.75012 | 78.62294 | 12291 ft | 353 kts | 338° |
| 2026-04-26 09:41 | 16.77261 | 78.61275 | 11828 ft | 350 kts | 338° |
| 2026-04-26 09:41 | 16.79475 | 78.60271 | 11378 ft | 347 kts | 338° |
| 2026-04-26 09:41 | 16.81682 | 78.59270 | 10931 ft | 344 kts | 338° |
| 2026-04-26 09:41 | 16.83877 | 78.58273 | 10486 ft | 342 kts | 338° |
| 2026-04-26 09:42 | 16.86066 | 78.57280 | 10040 ft | 340 kts | 338° |
| 2026-04-26 09:42 | 16.88211 | 78.56306 | 9836 ft | 329 kts | 338° |
| 2026-04-26 09:42 | 16.90271 | 78.55370 | 9824 ft | 313 kts | 338° |
| 2026-04-26 09:42 | 16.92223 | 78.54482 | 9822 ft | 299 kts | 338° |
| 2026-04-26 09:43 | 16.94085 | 78.53637 | 9815 ft | 285 kts | 338° |
| 2026-04-26 09:43 | 16.95897 | 78.52814 | 9629 ft | 279 kts | 338° |
| 2026-04-26 09:43 | 16.97685 | 78.52003 | 9363 ft | 277 kts | 338° |
| 2026-04-26 09:43 | 16.99466 | 78.51260 | 9076 ft | 275 kts | 348° |
| 2026-04-26 09:44 | 17.01363 | 78.51020 | 8789 ft | 275 kts | 358° |
| 2026-04-26 09:44 | 17.03305 | 78.50963 | 8491 ft | 279 kts | 0° |
| 2026-04-26 09:44 | 17.05257 | 78.50927 | 8202 ft | 278 kts | 0° |
| 2026-04-26 09:44 | 17.07179 | 78.50890 | 7912 ft | 277 kts | 360° |
| 2026-04-26 09:45 | 17.09120 | 78.50850 | 7613 ft | 276 kts | 360° |
| 2026-04-26 09:45 | 17.11034 | 78.50912 | 7311 ft | 274 kts | 12° |
| 2026-04-26 09:45 | 17.12761 | 78.51721 | 7005 ft | 271 kts | 39° |
| 2026-04-26 09:45 | 17.13911 | 78.53245 | 6808 ft | 265 kts | 65° |
| 2026-04-26 09:46 | 17.14384 | 78.55064 | 6617 ft | 260 kts | 81° |
| 2026-04-26 09:46 | 17.14562 | 78.56936 | 6443 ft | 255 kts | 86° |
| 2026-04-26 09:46 | 17.14632 | 78.58747 | 6276 ft | 248 kts | 88° |
| 2026-04-26 09:46 | 17.14674 | 78.60551 | 6092 ft | 243 kts | 88° |
| 2026-04-26 09:47 | 17.14707 | 78.62284 | 5914 ft | 232 kts | 88° |
| 2026-04-26 09:47 | 17.14732 | 78.63913 | 5709 ft | 220 kts | 88° |
| 2026-04-26 09:47 | 17.14742 | 78.65492 | 5415 ft | 214 kts | 88° |
| 2026-04-26 09:47 | 17.14779 | 78.67024 | 5138 ft | 207 kts | 79° |
| 2026-04-26 09:48 | 17.15322 | 78.68318 | 5114 ft | 189 kts | 50° |
| 2026-04-26 09:48 | 17.16363 | 78.69113 | 5089 ft | 187 kts | 22° |
| 2026-04-26 09:48 | 17.17645 | 78.69274 | 5070 ft | 186 kts | 353° |
| 2026-04-26 09:48 | 17.18842 | 78.68761 | 5055 ft | 188 kts | 324° |
| 2026-04-26 09:49 | 17.19729 | 78.67760 | 5041 ft | 191 kts | 310° |
| 2026-04-26 09:49 | 17.20561 | 78.66662 | 5028 ft | 190 kts | 309° |
| 2026-04-26 09:49 | 17.21378 | 78.65575 | 4972 ft | 191 kts | 309° |
| 2026-04-26 09:49 | 17.22206 | 78.64469 | 4864 ft | 191 kts | 309° |
| 2026-04-26 09:50 | 17.22909 | 78.63309 | 4737 ft | 190 kts | 292° |
| 2026-04-26 09:50 | 17.23150 | 78.61961 | 4577 ft | 189 kts | 274° |
| 2026-04-26 09:50 | 17.23146 | 78.60567 | 4417 ft | 192 kts | 269° |
| 2026-04-26 09:50 | 17.23109 | 78.59174 | 4254 ft | 191 kts | 270° |
| 2026-04-26 09:51 | 17.23090 | 78.57790 | 4085 ft | 190 kts | 270° |
| 2026-04-26 09:51 | 17.23069 | 78.56445 | 3883 ft | 178 kts | 270° |
| 2026-04-26 09:51 | 17.23050 | 78.55191 | 3683 ft | 166 kts | 270° |
| 2026-04-26 09:51 | 17.23033 | 78.54028 | 3498 ft | 151 kts | 270° |
| 2026-04-26 09:52 | 17.23018 | 78.52939 | 3322 ft | 150 kts | 270° |
| 2026-04-26 09:52 | 17.22989 | 78.50777 | 2962 ft | 147 kts | 270° |
| 2026-04-26 09:52 | 17.22979 | 78.49725 | 2784 ft | 146 kts | 271° |
| 2026-04-26 09:53 | 17.22964 | 78.48659 | 2629 ft | 142 kts | 267° |
| 2026-04-26 09:53 | 17.22924 | 78.47631 | 2467 ft | 142 kts | 269° |
| 2026-04-26 09:53 | 17.22924 | 78.46604 | 2286 ft | 143 kts | 269° |
| 2026-04-26 09:53 | 17.22916 | 78.45566 | 2138 ft | 142 kts | 269° |
| 2026-04-26 09:54 | 17.22899 | 78.44540 | 2047 ft | 137 kts | 268° |
| 2026-04-26 09:54 | 17.22884 | 78.43592 | 2028 ft | 127 kts | 270° |
| 2026-04-26 09:54 | 17.22877 | 78.43029 | 2006 ft | 49 kts | 267° |
| 2026-04-26 09:54 | 17.22879 | 78.42813 | 1995 ft | 27 kts | 273° |
| 2026-04-26 09:55 | 17.22890 | 78.42683 | 1990 ft | 19 kts | 283° |
| 2026-04-26 09:55 | 17.22947 | 78.42540 | 1983 ft | 23 kts | 300° |